Time;durP1;ratioP1;P1;durP2;ratioP2;P2;SDS_P1;SDS_P2;PMS_P1;PMS_P2;Temp;Humidity;BMP_temperature;BMP_pressure;BME280_temperature;BME280_humidity;BME280_pressure;Samples;Min_cycle;Max_cycle;Signal;HPM_P1;HPM_P2
2024/01/17 00:01:57;;;;;;;22.40;11.65;;;0.50;68.70;;;;;;5097761;28;20361;-76
2024/01/17 00:04:25;;;;;;;21.65;11.10;;;0.50;69.00;;;;;;5098222;28;20118;-76
2024/01/17 00:06:51;;;;;;;17.23;9.95;;;0.50;69.40;;;;;;5081657;28;20035;-76
2024/01/17 00:09:18;;;;;;;21.23;11.30;;;0.50;69.70;;;;;;5097660;28;20031;-76
2024/01/17 00:11:44;;;;;;;22.10;11.70;;;0.50;69.80;;;;;;5097993;28;20038;-76
2024/01/17 00:14:10;;;;;;;23.60;13.68;;;0.60;69.70;;;;;;5097894;28;20114;-76
2024/01/17 00:16:36;;;;;;;25.13;13.15;;;0.60;69.70;;;;;;5097884;28;20031;-76
2024/01/17 00:19:02;;;;;;;24.77;12.48;;;0.70;70.70;;;;;;5097870;28;20356;-77
2024/01/17 00:21:27;;;;;;;22.77;12.30;;;0.70;70.10;;;;;;5097768;28;20030;-75
2024/01/17 00:23:54;;;;;;;20.38;11.25;;;0.80;70.60;;;;;;5097879;28;20027;-76
2024/01/17 00:26:19;;;;;;;21.65;13.35;;;0.80;70.80;;;;;;5097638;28;20023;-76
2024/01/17 00:28:45;;;;;;;22.35;12.95;;;0.90;71.40;;;;;;5097577;28;20035;-76
2024/01/17 00:31:10;;;;;;;20.48;13.18;;;0.90;72.30;;;;;;5097660;28;20158;-76
2024/01/17 00:33:36;;;;;;;22.63;13.82;;;1.00;71.70;;;;;;5097100;28;20028;-76
2024/01/17 00:36:03;;;;;;;21.90;12.02;;;1.00;71.80;;;;;;5115727;28;20015;-77
2024/01/17 00:38:30;;;;;;;17.55;10.50;;;1.10;72.00;;;;;;5097149;28;20042;-76
2024/01/17 00:40:56;;;;;;;17.38;11.13;;;1.10;72.30;;;;;;5097349;28;20027;-76
2024/01/17 00:43:21;;;;;;;18.85;12.77;;;1.20;72.70;;;;;;5097510;28;20027;-76
2024/01/17 00:45:47;;;;;;;16.15;10.63;;;1.20;73.20;;;;;;5096974;28;20502;-76
2024/01/17 00:48:13;;;;;;;16.25;10.38;;;1.20;73.50;;;;;;5097203;28;20039;-77
2024/01/17 00:50:40;;;;;;;16.92;10.32;;;1.20;74.20;;;;;;5115503;28;20081;-76
2024/01/17 00:53:06;;;;;;;18.98;11.32;;;1.30;74.30;;;;;;5097093;28;20047;-76
2024/01/17 00:55:32;;;;;;;23.00;13.18;;;1.30;73.80;;;;;;5115346;28;20020;-75
2024/01/17 00:57:58;;;;;;;20.90;13.18;;;1.30;73.20;;;;;;5096922;28;20020;-75
2024/01/17 01:00:24;;;;;;;19.85;12.02;;;1.30;73.30;;;;;;5096740;28;20038;-75
2024/01/17 01:02:51;;;;;;;19.33;11.35;;;1.30;73.80;;;;;;5096929;28;20020;-76
2024/01/17 01:05:17;;;;;;;20.40;10.98;;;1.30;77.10;;;;;;5096924;28;20476;-76
2024/01/17 01:07:43;;;;;;;20.15;11.82;;;1.20;77.10;;;;;;5096521;28;20028;-77
2024/01/17 01:10:09;;;;;;;18.70;11.05;;;1.20;78.40;;;;;;5096506;28;20054;-75
2024/01/17 01:12:35;;;;;;;20.88;13.07;;;1.10;78.30;;;;;;5114823;28;20415;-75
2024/01/17 01:15:00;;;;;;;24.70;15.45;;;1.20;78.50;;;;;;5096644;28;20062;-75
2024/01/17 01:17:26;;;;;;;28.00;16.27;;;1.20;78.10;;;;;;5096105;28;20031;-75
2024/01/17 01:19:53;;;;;;;28.45;16.60;;;1.10;75.70;;;;;;5096169;28;20030;-77
2024/01/17 01:22:18;;;;;;;30.70;18.10;;;1.10;74.70;;;;;;5096772;28;20046;-77
2024/01/17 01:24:44;;;;;;;27.98;16.50;;;1.10;74.30;;;;;;5096655;28;20460;-79
2024/01/17 01:27:09;;;;;;;28.83;16.10;;;1.10;74.40;;;;;;5096592;28;20488;-77
2024/01/17 01:29:35;;;;;;;28.40;15.55;;;1.10;74.40;;;;;;5096318;28;20032;-77
2024/01/17 01:32:00;;;;;;;27.88;14.68;;;1.00;74.20;;;;;;5096477;28;20407;-77
2024/01/17 01:34:26;;;;;;;26.65;16.13;;;1.00;74.20;;;;;;5096396;28;20525;-76
2024/01/17 01:36:52;;;;;;;20.85;12.77;;;1.00;75.90;;;;;;5096044;28;20023;-76
2024/01/17 01:39:17;;;;;;;23.77;13.13;;;1.10;79.50;;;;;;5095904;28;20077;-76
2024/01/17 01:41:43;;;;;;;25.95;15.07;;;1.20;81.30;;;;;;5096121;28;20031;-78
2024/01/17 01:44:09;;;;;;;24.40;14.70;;;1.20;81.60;;;;;;5097915;28;20031;-76
2024/01/17 01:46:34;;;;;;;27.42;15.38;;;1.20;81.90;;;;;;5097525;28;20135;-77
2024/01/17 01:49:00;;;;;;;24.98;16.83;;;1.20;82.00;;;;;;5097898;28;20063;-77
2024/01/17 01:51:28;;;;;;;31.42;18.27;;;1.10;82.10;;;;;;5110088;28;20028;-77
2024/01/17 01:53:57;;;;;;;27.90;19.17;;;1.20;81.90;;;;;;5075807;28;20032;-76
2024/01/17 01:56:29;;;;;;;29.95;18.92;;;1.20;81.80;;;;;;5075773;28;20039;-77
2024/01/17 01:58:55;;;;;;;29.77;18.85;;;1.20;81.60;;;;;;5075477;28;20023;-78
2024/01/17 02:01:23;;;;;;;28.73;20.27;;;1.20;81.90;;;;;;5075649;28;20027;-77
2024/01/17 02:03:49;;;;;;;29.95;19.02;;;1.20;82.10;;;;;;5075472;28;20016;-77
2024/01/17 02:06:18;;;;;;;32.38;19.95;;;1.20;82.10;;;;;;5075535;28;20030;-77
2024/01/17 02:08:43;;;;;;;34.60;19.30;;;1.10;82.70;;;;;;5075488;28;20036;-78
2024/01/17 02:11:10;;;;;;;34.35;19.27;;;1.10;82.90;;;;;;5075388;28;20026;-77
2024/01/17 02:13:36;;;;;;;32.47;19.00;;;1.10;83.00;;;;;;5075199;28;20027;-76
2024/01/17 02:16:02;;;;;;;32.67;17.70;;;1.10;83.60;;;;;;5058448;28;20030;-77
2024/01/17 02:18:28;;;;;;;32.72;18.13;;;1.10;83.90;;;;;;5075411;28;20123;-76
2024/01/17 02:20:54;;;;;;;36.97;21.20;;;1.10;84.10;;;;;;5075333;28;20051;-76
2024/01/17 02:23:29;;;;;;;40.75;21.38;;;1.10;84.90;;;;;;5075458;28;20554;-77
2024/01/17 02:25:57;;;;;;;35.15;20.13;;;1.10;84.20;;;;;;5058258;28;20074;-77
2024/01/17 02:28:25;;;;;;;38.80;21.35;;;1.10;84.10;;;;;;5093093;28;20051;-77
2024/01/17 02:30:51;;;;;;;36.53;23.17;;;1.10;84.00;;;;;;5075184;28;20050;-76
2024/01/17 02:33:18;;;;;;;33.22;23.27;;;1.10;84.00;;;;;;5075361;28;20028;-77
2024/01/17 02:35:44;;;;;;;36.55;23.88;;;1.00;84.00;;;;;;5075175;28;20028;-76
2024/01/17 02:38:09;;;;;;;35.17;21.48;;;1.00;84.20;;;;;;5074688;28;20031;-76
2024/01/17 02:40:35;;;;;;;39.08;24.90;;;1.00;84.00;;;;;;5057898;28;20392;-77
2024/01/17 02:43:01;;;;;;;37.78;21.98;;;0.90;84.30;;;;;;5093295;28;20066;-77
2024/01/17 02:45:26;;;;;;;34.58;21.05;;;0.90;84.80;;;;;;5074434;28;20170;-77
2024/01/17 02:47:52;;;;;;;37.22;20.75;;;0.90;85.00;;;;;;5074932;28;20502;-77
2024/01/17 02:50:18;;;;;;;38.03;20.00;;;0.80;85.40;;;;;;5074952;28;20035;-77
2024/01/17 02:52:47;;;;;;;34.92;19.77;;;0.80;85.90;;;;;;5073271;28;20148;-77
2024/01/17 02:55:13;;;;;;;34.63;22.20;;;0.80;86.10;;;;;;5094851;28;20422;-77
2024/01/17 02:57:39;;;;;;;34.63;20.92;;;0.80;86.60;;;;;;5097112;28;20041;-77
2024/01/17 03:00:06;;;;;;;37.83;21.25;;;0.90;86.60;;;;;;5117412;28;20136;-77
2024/01/17 03:02:32;;;;;;;35.45;20.63;;;1.00;86.40;;;;;;5117351;28;20103;-77
2024/01/17 03:04:58;;;;;;;37.38;22.58;;;1.00;86.50;;;;;;5117268;28;20107;-78
2024/01/17 03:07:23;;;;;;;33.58;22.70;;;1.00;86.50;;;;;;5099153;28;20077;-77
2024/01/17 03:09:49;;;;;;;32.95;20.23;;;1.10;86.80;;;;;;5099023;28;20044;-77
2024/01/17 03:12:15;;;;;;;36.30;22.67;;;1.20;87.10;;;;;;5099180;28;20016;-77
2024/01/17 03:14:41;;;;;;;34.15;21.80;;;1.20;87.20;;;;;;5099148;28;20034;-77
2024/01/17 03:17:07;;;;;;;30.98;18.80;;;1.30;87.50;;;;;;5117062;28;20032;-77
2024/01/17 03:19:32;;;;;;;28.45;17.85;;;1.30;87.70;;;;;;5099187;28;20337;-78
2024/01/17 03:21:58;;;;;;;29.20;18.75;;;1.40;88.10;;;;;;5098726;28;20027;-77
2024/01/17 03:24:23;;;;;;;25.42;17.05;;;1.50;88.10;;;;;;5098965;28;20030;-77
2024/01/17 03:26:49;;;;;;;25.40;15.93;;;1.60;88.00;;;;;;5098624;28;20383;-77
2024/01/17 03:29:14;;;;;;;22.85;14.18;;;1.70;88.30;;;;;;5081408;28;20115;-77
2024/01/17 03:31:40;;;;;;;24.48;15.20;;;1.80;88.20;;;;;;5098605;28;20023;-77
2024/01/17 03:34:05;;;;;;;21.27;14.48;;;1.80;88.00;;;;;;5116815;28;20028;-77
2024/01/17 03:36:31;;;;;;;22.55;14.77;;;1.90;87.90;;;;;;5098687;28;20039;-77
2024/01/17 03:38:56;;;;;;;21.92;14.13;;;1.90;87.60;;;;;;5098658;28;20030;-77
2024/01/17 03:41:22;;;;;;;21.63;12.55;;;2.00;87.20;;;;;;5098321;28;20015;-77
2024/01/17 03:43:48;;;;;;;19.73;14.20;;;2.00;87.10;;;;;;5116584;28;20098;-77
2024/01/17 03:46:13;;;;;;;17.90;12.75;;;2.10;87.00;;;;;;5098252;28;20031;-77
2024/01/17 03:48:39;;;;;;;18.10;11.75;;;2.10;86.90;;;;;;5098444;28;20072;-75
2024/01/17 03:51:06;;;;;;;18.00;11.27;;;2.10;86.80;;;;;;5116098;28;20089;-76
2024/01/17 03:53:31;;;;;;;16.05;11.63;;;2.10;86.90;;;;;;5098199;28;20067;-76
2024/01/17 03:55:57;;;;;;;15.52;10.65;;;2.20;86.90;;;;;;5098109;28;20027;-76
2024/01/17 03:58:22;;;;;;;16.20;11.73;;;2.20;86.60;;;;;;5097930;28;20030;-75
2024/01/17 04:00:48;;;;;;;15.18;10.40;;;2.30;86.70;;;;;;5097840;28;20046;-76
2024/01/17 04:03:13;;;;;;;16.33;11.80;;;2.30;86.50;;;;;;5097603;28;20024;-76
2024/01/17 04:05:41;;;;;;;14.30;10.63;;;2.40;86.30;;;;;;5097768;28;20395;-76
2024/01/17 04:08:06;;;;;;;15.80;10.35;;;2.30;86.20;;;;;;5097218;28;20030;-77
2024/01/17 04:10:32;;;;;;;16.08;10.10;;;2.40;86.30;;;;;;5097280;28;20024;-76
2024/01/17 04:12:58;;;;;;;14.98;9.63;;;2.40;86.30;;;;;;5116045;28;20020;-76
2024/01/17 04:15:24;;;;;;;14.35;8.15;;;2.40;86.30;;;;;;5115940;28;20115;-77
2024/01/17 04:17:49;;;;;;;14.93;10.02;;;2.40;86.40;;;;;;5097545;28;20024;-77
2024/01/17 04:20:15;;;;;;;13.35;9.75;;;2.50;86.50;;;;;;5097882;28;20023;-76
2024/01/17 04:22:40;;;;;;;12.23;8.85;;;2.50;86.40;;;;;;5115777;28;20028;-76
2024/01/17 04:25:06;;;;;;;15.65;8.73;;;2.50;86.30;;;;;;5116172;28;20047;-76
2024/01/17 04:27:32;;;;;;;13.57;9.00;;;2.60;86.30;;;;;;5097682;28;20056;-76
2024/01/17 04:29:58;;;;;;;13.02;9.82;;;2.60;86.30;;;;;;5115641;28;20027;-77
2024/01/17 04:32:24;;;;;;;15.57;9.80;;;2.60;86.50;;;;;;5115655;28;20098;-76
2024/01/17 04:34:50;;;;;;;15.63;10.02;;;2.60;86.30;;;;;;5115964;28;20093;-76
2024/01/17 04:37:16;;;;;;;13.27;9.88;;;2.60;86.20;;;;;;5097366;28;20471;-76
2024/01/17 04:39:43;;;;;;;12.55;8.68;;;2.50;86.40;;;;;;5115845;28;20024;-77
2024/01/17 04:42:08;;;;;;;13.00;8.77;;;2.60;86.40;;;;;;5097950;28;20114;-76
2024/01/17 04:44:34;;;;;;;11.65;7.82;;;2.60;86.10;;;;;;5115652;28;20066;-75
2024/01/17 04:47:00;;;;;;;13.32;8.23;;;2.60;86.20;;;;;;5097430;28;20119;-76
2024/01/17 04:49:27;;;;;;;13.85;8.50;;;2.60;86.30;;;;;;5096962;28;20526;-76
2024/01/17 04:51:53;;;;;;;13.70;8.88;;;2.60;86.40;;;;;;5097002;28;20130;-77
2024/01/17 04:54:20;;;;;;;14.95;9.45;;;2.60;86.70;;;;;;5097098;28;20030;-75
2024/01/17 04:56:46;;;;;;;15.38;10.27;;;2.60;86.50;;;;;;5096884;28;20058;-76
2024/01/17 04:59:11;;;;;;;20.73;11.55;;;2.60;86.30;;;;;;5096879;28;20055;-76
2024/01/17 05:01:37;;;;;;;18.90;11.27;;;2.60;86.20;;;;;;5096903;28;20047;-76
2024/01/17 05:04:03;;;;;;;17.33;10.48;;;2.60;86.20;;;;;;5097010;28;20031;-77
2024/01/17 05:06:29;;;;;;;22.30;13.02;;;2.60;86.40;;;;;;5096820;28;20358;-76
2024/01/17 05:08:56;;;;;;;21.40;11.95;;;2.60;86.50;;;;;;5096686;28;20031;-77
2024/01/17 05:11:22;;;;;;;17.38;12.13;;;2.60;86.60;;;;;;5096908;28;20150;-77
2024/01/17 05:13:48;;;;;;;17.33;11.82;;;2.60;86.80;;;;;;5096649;28;20027;-77
2024/01/17 05:16:15;;;;;;;17.92;11.73;;;2.50;87.10;;;;;;5097482;28;20027;-79
2024/01/17 05:18:40;;;;;;;17.58;11.48;;;2.50;87.20;;;;;;5099844;28;20031;-78
2024/01/17 05:21:06;;;;;;;18.38;11.00;;;2.60;87.10;;;;;;5096162;28;20019;-76
2024/01/17 05:23:31;;;;;;;16.80;10.50;;;2.60;86.80;;;;;;5098008;28;20118;-77
2024/01/17 05:25:57;;;;;;;18.75;11.27;;;2.60;86.80;;;;;;5096592;28;20027;-77
2024/01/17 05:28:22;;;;;;;16.65;10.25;;;2.70;86.80;;;;;;5096409;28;20525;-77
2024/01/17 05:30:48;;;;;;;19.73;12.40;;;2.60;86.70;;;;;;5096656;28;20024;-77
2024/01/17 05:33:14;;;;;;;18.90;12.73;;;2.60;86.80;;;;;;5096376;28;20475;-77
2024/01/17 05:35:40;;;;;;;18.92;11.57;;;2.70;86.90;;;;;;5114638;28;20102;-78
2024/01/17 05:38:06;;;;;;;20.33;11.35;;;2.70;86.90;;;;;;5096351;28;20030;-77
2024/01/17 05:40:31;;;;;;;16.20;11.68;;;2.70;86.90;;;;;;5096292;28;20094;-77
2024/01/17 05:42:57;;;;;;;16.77;11.50;;;2.80;87.00;;;;;;5097517;28;20028;-78
2024/01/17 05:45:23;;;;;;;19.38;11.80;;;2.90;87.10;;;;;;5097039;28;20381;-78
2024/01/17 05:47:48;;;;;;;15.60;12.35;;;2.90;87.00;;;;;;5114584;28;20491;-77
2024/01/17 05:50:14;;;;;;;17.77;11.98;;;2.90;87.10;;;;;;5114784;28;20494;-77
2024/01/17 05:52:48;;;;;;;16.58;12.35;;;2.90;87.10;;;;;;5096513;28;20124;-77
2024/01/17 05:55:15;;;;;;;17.48;11.48;;;2.90;87.20;;;;;;5114394;28;20047;-78
2024/01/17 05:57:41;;;;;;;16.00;11.90;;;2.90;87.10;;;;;;5097031;28;20068;-78
2024/01/17 06:00:08;;;;;;;14.05;10.88;;;3.00;87.20;;;;;;5096165;28;20103;-78
2024/01/17 06:02:35;;;;;;;15.00;10.82;;;3.00;87.10;;;;;;5094322;28;20024;-77
2024/01/17 06:05:02;;;;;;;16.88;11.13;;;3.00;87.00;;;;;;5078389;28;20103;-76
2024/01/17 06:07:28;;;;;;;16.23;11.43;;;3.00;86.80;;;;;;5095214;28;20023;-77
2024/01/17 06:09:53;;;;;;;15.50;10.77;;;3.00;86.90;;;;;;5095351;28;20330;-77
2024/01/17 06:12:19;;;;;;;16.17;11.70;;;3.10;86.90;;;;;;5095834;28;20119;-76
2024/01/17 06:14:45;;;;;;;16.20;11.52;;;3.00;86.90;;;;;;5095517;28;20123;-76
2024/01/17 06:17:11;;;;;;;14.23;10.00;;;3.00;86.80;;;;;;5113710;28;20487;-76
2024/01/17 06:19:36;;;;;;;14.07;10.48;;;3.00;86.90;;;;;;5095429;28;20023;-77
2024/01/17 06:22:02;;;;;;;13.15;9.88;;;3.00;87.00;;;;;;5095401;28;20126;-77
2024/01/17 06:24:29;;;;;;;23.67;15.18;;;3.00;87.20;;;;;;5095080;28;20051;-77
2024/01/17 06:26:55;;;;;;;14.02;11.18;;;3.00;87.10;;;;;;5078463;28;20496;-77
2024/01/17 06:29:21;;;;;;;15.68;10.43;;;3.00;87.20;;;;;;5095293;28;20031;-76
2024/01/17 06:31:46;;;;;;;11.75;9.45;;;2.90;87.20;;;;;;5094858;28;20020;-76
2024/01/17 06:34:12;;;;;;;10.55;7.82;;;3.00;87.30;;;;;;5095501;28;20499;-76
2024/01/17 06:36:39;;;;;;;10.63;7.63;;;3.00;87.20;;;;;;5095510;28;20024;-77
2024/01/17 06:39:05;;;;;;;8.07;6.45;;;3.00;87.10;;;;;;5094865;28;20032;-77
2024/01/17 06:41:32;;;;;;;9.18;6.65;;;3.00;87.20;;;;;;5107263;28;20543;-76
2024/01/17 06:43:58;;;;;;;8.48;7.07;;;3.00;87.20;;;;;;5093071;28;20048;-76
2024/01/17 06:46:23;;;;;;;9.75;7.10;;;3.00;87.40;;;;;;5094637;28;20020;-76
2024/01/17 06:48:49;;;;;;;8.25;6.53;;;3.00;87.50;;;;;;5112737;28;20107;-77
2024/01/17 06:51:14;;;;;;;11.45;6.75;;;3.00;87.50;;;;;;5094623;28;20043;-76
2024/01/17 06:53:40;;;;;;;8.90;6.35;;;3.00;87.50;;;;;;5094771;28;20081;-75
2024/01/17 06:56:06;;;;;;;6.78;5.30;;;3.10;87.70;;;;;;5113108;28;20015;-76
2024/01/17 06:58:31;;;;;;;8.27;5.70;;;3.10;87.60;;;;;;5083548;28;20044;-77
2024/01/17 07:00:57;;;;;;;8.68;5.75;;;3.10;87.50;;;;;;5094114;28;20016;-77
2024/01/17 07:03:23;;;;;;;6.78;5.50;;;3.10;87.40;;;;;;5093598;28;20016;-77
2024/01/17 07:05:48;;;;;;;6.38;4.95;;;3.10;87.50;;;;;;5112169;28;20023;-77
2024/01/17 07:08:14;;;;;;;7.13;4.13;;;3.10;87.60;;;;;;5112100;28;20020;-77
2024/01/17 07:10:40;;;;;;;5.50;4.07;;;3.10;87.40;;;;;;5094888;28;20039;-77
2024/01/17 07:13:06;;;;;;;5.35;3.90;;;3.20;87.00;;;;;;5094741;28;20336;-77
2024/01/17 07:15:32;;;;;;;5.65;3.95;;;3.30;86.60;;;;;;5112661;28;20027;-76
2024/01/17 07:17:58;;;;;;;7.63;4.43;;;3.30;86.50;;;;;;5095050;28;20031;-77
2024/01/17 07:20:25;;;;;;;5.05;4.40;;;3.30;86.70;;;;;;5094899;28;20035;-78
2024/01/17 07:22:50;;;;;;;4.28;3.70;;;3.20;87.00;;;;;;5096026;28;20031;-77
2024/01/17 07:25:16;;;;;;;6.00;4.03;;;3.20;87.20;;;;;;5096327;28;20020;-77
2024/01/17 07:27:45;;;;;;;6.20;3.60;;;3.20;87.60;;;;;;5095004;28;20441;-77
2024/01/17 07:30:14;;;;;;;5.63;3.47;;;3.20;87.60;;;;;;5095064;28;20035;-77
2024/01/17 07:32:40;;;;;;;4.05;3.40;;;3.30;87.50;;;;;;5095103;28;20051;-76
2024/01/17 07:35:06;;;;;;;4.30;3.58;;;3.30;87.40;;;;;;5094877;28;20024;-78
2024/01/17 07:37:32;;;;;;;4.03;3.20;;;3.30;87.40;;;;;;5095145;28;20020;-77
2024/01/17 07:39:59;;;;;;;12.05;4.53;;;3.30;87.50;;;;;;5095480;28;20061;-77
2024/01/17 07:42:24;;;;;;;7.90;4.35;;;3.50;89.50;;;;;;5094756;28;20118;-78
2024/01/17 07:44:50;;;;;;;9.00;5.40;;;3.90;88.80;;;;;;5115267;28;20055;-78
2024/01/17 07:47:16;;;;;;;9.88;5.85;;;4.20;86.50;;;;;;5099587;28;20533;-80
2024/01/17 07:49:43;;;;;;;9.82;5.03;;;4.30;84.90;;;;;;5100436;28;20043;-81
2024/01/17 07:52:09;;;;;;;4.78;2.92;;;4.40;83.40;;;;;;5098404;28;20445;-80
2024/01/17 07:54:36;;;;;;;10.07;5.35;;;4.40;83.80;;;;;;5098241;28;20110;-79
2024/01/17 07:57:04;;;;;;;17.35;8.38;;;4.70;83.20;;;;;;5116938;28;20019;-81
2024/01/17 07:59:31;;;;;;;14.10;7.57;;;5.00;81.70;;;;;;5099188;28;20392;-81
2024/01/17 08:01:56;;;;;;;20.45;11.85;;;5.30;80.00;;;;;;5098361;28;20069;-81
2024/01/17 08:04:22;;;;;;;45.65;23.02;;;5.60;78.70;;;;;;5098541;28;20027;-80
2024/01/17 08:06:48;;;;;;;18.38;9.70;;;5.80;77.10;;;;;;5098576;28;20170;-80
2024/01/17 08:09:26;;;;;;;12.05;6.38;;;6.00;76.10;;;;;;5098332;28;20513;-79
2024/01/17 08:11:53;;;;;;;26.33;12.98;;;6.10;75.00;;;;;;5098159;28;20058;-79
2024/01/17 08:14:20;;;;;;;19.98;10.13;;;6.40;74.10;;;;;;5098571;28;20027;-79
2024/01/17 08:16:46;;;;;;;12.88;7.50;;;6.60;73.50;;;;;;5116925;28;20028;-77
2024/01/17 08:19:14;;;;;;;9.27;4.78;;;6.50;72.50;;;;;;5098271;28;20023;-78
2024/01/17 08:21:51;;;;;;;13.88;7.72;;;6.70;72.80;;;;;;5116894;28;20016;-75
2024/01/17 08:24:16;;;;;;;1.65;1.17;;;6.50;72.20;;;;;;5098074;28;20027;-75
2024/01/17 08:26:43;;;;;;;0.73;0.73;;;6.00;73.50;;;;;;5098436;28;20024;-76
2024/01/17 08:29:09;;;;;;;0.77;0.70;;;5.50;75.50;;;;;;5115988;28;20532;-77
2024/01/17 08:31:34;;;;;;;0.75;0.75;;;5.10;78.60;;;;;;5097656;28;20122;-76
2024/01/17 08:34:00;;;;;;;1.13;1.00;;;4.70;80.00;;;;;;5097716;28;20365;-76
2024/01/17 08:36:30;;;;;;;1.10;0.80;;;4.40;81.60;;;;;;5097664;28;20116;-76
2024/01/17 08:38:57;;;;;;;2.05;1.08;;;4.20;83.10;;;;;;5116074;28;20023;-77
2024/01/17 08:41:23;;;;;;;1.13;0.90;;;4.00;84.20;;;;;;5098969;28;20015;-76
2024/01/17 08:43:49;;;;;;;1.55;1.45;;;3.90;84.70;;;;;;5099572;28;20376;-76
2024/01/17 08:46:15;;;;;;;2.22;1.25;;;3.90;85.20;;;;;;5097597;28;20114;-77
2024/01/17 08:48:41;;;;;;;2.13;1.08;;;3.90;85.80;;;;;;5115517;28;20532;-77
2024/01/17 08:51:08;;;;;;;1.00;0.60;;;3.80;86.10;;;;;;5096893;28;20057;-77
2024/01/17 08:53:34;;;;;;;0.90;0.65;;;3.80;86.30;;;;;;5097256;28;20038;-76
2024/01/17 08:56:04;;;;;;;0.75;0.70;;;3.80;86.80;;;;;;5097207;28;20084;-77
2024/01/17 08:58:30;;;;;;;2.15;0.90;;;3.90;86.90;;;;;;5096867;28;20034;-77
2024/01/17 09:00:56;;;;;;;0.85;0.73;;;3.90;87.00;;;;;;5097029;28;20024;-76
2024/01/17 09:03:22;;;;;;;0.80;0.70;;;4.00;86.60;;;;;;5096961;28;20032;-76
2024/01/17 09:05:47;;;;;;;1.42;1.00;;;4.10;86.70;;;;;;5096935;28;20020;-76
2024/01/17 09:08:14;;;;;;;1.10;0.95;;;4.00;87.00;;;;;;5096657;28;20060;-77
2024/01/17 09:10:39;;;;;;;0.50;0.47;;;4.10;87.30;;;;;;5096996;28;20035;-77
2024/01/17 09:13:06;;;;;;;0.90;0.90;;;4.20;87.20;;;;;;5096584;28;20016;-77
2024/01/17 09:15:32;;;;;;;0.85;0.85;;;4.20;87.30;;;;;;5096895;28;20034;-77
2024/01/17 09:17:57;;;;;;;2.42;1.25;;;4.30;87.60;;;;;;5097144;28;20368;-76
2024/01/17 09:20:24;;;;;;;2.22;0.82;;;4.40;87.40;;;;;;5096334;28;20059;-76
2024/01/17 09:22:51;;;;;;;1.48;1.00;;;4.40;87.60;;;;;;5097509;28;20016;-77
2024/01/17 09:25:17;;;;;;;1.00;0.80;;;4.40;87.60;;;;;;5096835;28;20039;-77
2024/01/17 09:27:43;;;;;;;0.90;0.60;;;4.50;87.60;;;;;;5080210;28;20024;-77
2024/01/17 09:30:09;;;;;;;2.17;1.27;;;4.60;87.10;;;;;;5096008;28;20070;-77
2024/01/17 09:32:35;;;;;;;2.00;0.90;;;4.70;87.50;;;;;;5096058;28;20027;-77
2024/01/17 09:35:15;;;;;;;3.25;1.38;;;4.80;87.10;;;;;;5098564;28;20028;-76
2024/01/17 09:37:46;;;;;;;3.30;1.50;;;4.90;86.80;;;;;;5099291;28;20429;-77
2024/01/17 09:40:15;;;;;;;1.70;0.85;;;5.00;86.60;;;;;;5112167;28;20038;-78
2024/01/17 09:42:41;;;;;;;2.63;0.90;;;5.20;86.10;;;;;;5096997;28;20015;-78
2024/01/17 09:45:09;;;;;;;1.55;0.60;;;5.30;85.80;;;;;;5096402;28;20413;-76
2024/01/17 09:47:36;;;;;;;0.65;0.52;;;5.30;85.60;;;;;;5095591;28;20027;-76
2024/01/17 09:50:02;;;;;;;1.50;0.90;;;5.30;85.70;;;;;;5095714;28;20383;-75
2024/01/17 09:52:30;;;;;;;1.13;0.70;;;5.40;85.70;;;;;;5097796;28;20075;-78
2024/01/17 09:55:00;;;;;;;0.60;0.50;;;5.50;85.70;;;;;;5096235;28;20062;-76
2024/01/17 09:57:30;;;;;;;0.45;0.40;;;5.60;85.50;;;;;;5096272;28;20172;-76
2024/01/17 10:00:09;;;;;;;0.82;0.57;;;5.60;85.50;;;;;;5080070;28;20024;-77
2024/01/17 10:02:39;;;;;;;0.75;0.63;;;5.70;85.00;;;;;;5096695;28;20024;-77
2024/01/17 10:05:09;;;;;;;0.95;0.75;;;5.70;85.20;;;;;;5099942;28;20023;-77
2024/01/17 10:07:38;;;;;;;0.70;0.70;;;5.80;85.30;;;;;;5113615;28;20069;-76
2024/01/17 10:10:07;;;;;;;0.55;0.50;;;5.90;85.20;;;;;;5095495;28;20092;-77
2024/01/17 10:12:33;;;;;;;3.53;1.33;;;5.90;84.90;;;;;;5113874;28;20037;-77
2024/01/17 10:15:05;;;;;;;1.42;0.90;;;6.00;85.10;;;;;;5094857;28;20028;-75
2024/01/17 10:17:34;;;;;;;0.80;0.70;;;6.10;85.90;;;;;;5095466;28;20019;-77
2024/01/17 10:20:00;;;;;;;0.68;0.60;;;6.10;85.90;;;;;;5095838;28;20111;-76
2024/01/17 10:22:26;;;;;;;0.77;0.30;;;6.10;85.00;;;;;;5095840;28;20050;-77
2024/01/17 10:24:52;;;;;;;0.52;0.52;;;6.10;84.90;;;;;;5095698;28;20500;-76
2024/01/17 10:27:18;;;;;;;0.30;0.30;;;6.20;84.90;;;;;;5113987;28;20023;-78
2024/01/17 10:29:44;;;;;;;0.75;0.50;;;6.40;85.10;;;;;;5094964;28;20032;-78
2024/01/17 10:32:10;;;;;;;0.50;0.40;;;6.40;84.90;;;;;;5113471;28;20379;-77
2024/01/17 10:34:41;;;;;;;0.40;0.40;;;6.40;84.50;;;;;;5111878;28;20110;-77
2024/01/17 10:37:11;;;;;;;0.40;0.40;;;6.40;85.10;;;;;;5095926;28;20031;-77
2024/01/17 10:39:37;;;;;;;0.60;0.50;;;6.50;85.10;;;;;;5095673;28;20100;-78
2024/01/17 10:42:05;;;;;;;1.40;0.43;;;6.60;85.70;;;;;;5095907;28;20464;-78
2024/01/17 10:44:31;;;;;;;0.30;0.30;;;6.60;85.50;;;;;;5096674;28;20046;-77
2024/01/17 10:46:57;;;;;;;0.77;0.57;;;6.60;85.20;;;;;;5096152;28;20028;-77
2024/01/17 10:49:23;;;;;;;0.65;0.30;;;6.70;85.40;;;;;;5095637;28;20081;-77
2024/01/17 10:52:02;;;;;;;0.52;0.40;;;6.80;85.10;;;;;;5095347;28;20126;-78
2024/01/17 10:54:37;;;;;;;0.40;0.40;;;6.80;84.70;;;;;;5095089;28;20028;-78
2024/01/17 10:57:07;;;;;;;0.37;0.30;;;6.90;85.10;;;;;;5078476;28;20055;-76
2024/01/17 10:59:33;;;;;;;0.30;0.30;;;7.10;84.70;;;;;;5095510;28;20784;-77
2024/01/17 11:02:00;;;;;;;0.20;0.13;;;7.20;84.70;;;;;;5095288;28;20115;-76
2024/01/17 11:04:36;;;;;;;0.50;0.28;;;7.30;85.10;;;;;;5095655;28;20037;-76
2024/01/17 11:07:05;;;;;;;0.30;0.30;;;7.30;85.00;;;;;;5095455;28;20023;-77
2024/01/17 11:09:31;;;;;;;1.27;0.20;;;7.40;85.10;;;;;;5095309;28;20032;-77
2024/01/17 11:11:59;;;;;;;0.43;0.10;;;7.50;85.00;;;;;;5095310;28;20065;-77
2024/01/17 11:14:30;;;;;;;0.50;0.40;;;7.60;84.60;;;;;;5095073;28;20522;-77
2024/01/17 11:17:03;;;;;;;0.65;0.30;;;7.70;84.70;;;;;;5095449;28;20054;-77
2024/01/17 11:19:32;;;;;;;0.43;0.40;;;7.70;86.00;;;;;;5098534;28;20072;-77
2024/01/17 11:22:00;;;;;;;0.80;0.30;;;7.80;84.60;;;;;;5099512;28;20368;-77
2024/01/17 11:24:45;;;;;;;0.20;0.20;;;7.70;85.10;;;;;;5099788;28;20027;-77
2024/01/17 11:27:36;;;;;;;1.55;0.30;;;7.70;85.60;;;;;;5118522;28;20031;-77
2024/01/17 11:30:11;;;;;;;0.65;0.30;;;7.70;85.60;;;;;;5098516;28;20040;-77
2024/01/17 11:33:04;;;;;;;;;;;7.70;85.80;;;;;;5117545;28;20015;-78
2024/01/17 11:35:46;;;;;;;0.20;0.20;;;7.80;86.00;;;;;;5112065;28;19908;-74
2024/01/17 11:38:15;;;;;;;0.43;0.30;;;7.90;86.40;;;;;;5098723;28;20357;-74
2024/01/17 11:40:41;;;;;;;0.25;0.25;;;8.00;85.90;;;;;;5099208;28;20336;-74
2024/01/17 11:43:09;;;;;;;0.35;0.35;;;8.00;85.80;;;;;;5116901;28;20036;-79
2024/01/17 11:45:36;;;;;;;0.30;0.20;;;8.00;85.80;;;;;;5097674;28;20069;-76
2024/01/17 11:48:25;;;;;;;0.55;0.30;;;8.10;85.90;;;;;;5098520;28;20024;-78
2024/01/17 11:51:14;;;;;;;0.73;0.22;;;8.10;85.90;;;;;;5098110;28;20395;-78
2024/01/17 11:53:50;;;;;;;1.52;0.60;;;8.20;86.10;;;;;;5097601;28;20438;-76
2024/01/17 11:56:20;;;;;;;0.15;0.15;;;8.20;85.90;;;;;;5115789;28;20098;-74
2024/01/17 11:58:47;;;;;;;0.25;0.25;;;8.30;86.20;;;;;;5097644;28;20034;-77
2024/01/17 12:01:38;;;;;;;2.30;0.50;;;8.30;85.50;;;;;;5097912;28;20054;-75
2024/01/17 12:04:11;;;;;;;0.90;0.30;;;8.40;85.20;;;;;;5097668;28;20043;-76
2024/01/17 12:06:37;;;;;;;1.20;0.60;;;8.50;85.10;;;;;;5115983;28;20065;-75
2024/01/17 12:09:05;;;;;;;1.67;0.68;;;8.60;84.50;;;;;;5097856;28;20083;-74
2024/01/17 12:11:31;;;;;;;1.77;0.90;;;8.60;84.40;;;;;;5116055;28;20011;-75
2024/01/17 12:13:57;;;;;;;1.38;0.60;;;8.80;84.20;;;;;;5097527;28;20487;-75
2024/01/17 12:16:23;;;;;;;0.70;0.52;;;8.90;84.00;;;;;;5097753;28;20514;-76
2024/01/17 12:18:59;;;;;;;1.60;0.63;;;9.00;84.00;;;;;;5115862;28;20012;-75
2024/01/17 12:21:24;;;;;;;1.42;0.90;;;9.00;83.70;;;;;;5115826;28;20034;-74
2024/01/17 12:23:50;;;;;;;1.50;0.60;;;9.20;83.30;;;;;;5115899;28;20027;-76
2024/01/17 12:26:16;;;;;;;4.32;1.48;;;9.20;83.10;;;;;;5115920;28;20026;-75
2024/01/17 12:28:42;;;;;;;3.92;1.05;;;9.30;83.00;;;;;;5115838;28;20024;-75
2024/01/17 12:31:07;;;;;;;2.90;1.10;;;9.40;82.60;;;;;;5115202;28;20034;-76
2024/01/17 12:33:38;;;;;;;3.50;1.23;;;9.50;82.00;;;;;;5115592;28;20099;-76
2024/01/17 12:36:05;;;;;;;3.70;1.08;;;9.70;82.50;;;;;;5115697;28;20028;-76
2024/01/17 12:38:33;;;;;;;3.10;1.27;;;9.70;81.50;;;;;;5115617;28;20484;-75
2024/01/17 12:40:59;;;;;;;4.97;1.48;;;9.80;81.70;;;;;;5115475;28;20145;-76
2024/01/17 12:43:28;;;;;;;4.50;1.77;;;9.90;81.60;;;;;;5115440;28;20038;-75
2024/01/17 12:45:54;;;;;;;2.92;1.20;;;10.00;81.20;;;;;;5116649;28;20055;-75